sensor_id;sensor_type;location;lat;lon;timestamp;P1;durP1;ratioP1;P2;durP2;ratioP2
38222;SDS011;24024;51.186;6.458;2022-07-06T00:00:20;5.47;;;2.00;;
38222;SDS011;24024;51.186;6.458;2022-07-06T00:02:52;3.83;;;2.00;;
38222;SDS011;24024;51.186;6.458;2022-07-06T00:05:21;4.93;;;2.10;;
38222;SDS011;24024;51.186;6.458;2022-07-06T00:07:48;5.63;;;2.00;;
38222;SDS011;24024;51.186;6.458;2022-07-06T00:10:14;8.43;;;2.70;;
38222;SDS011;24024;51.186;6.458;2022-07-06T00:12:41;6.43;;;2.70;;
38222;SDS011;24024;51.186;6.458;2022-07-06T00:15:08;6.05;;;2.22;;
38222;SDS011;24024;51.186;6.458;2022-07-06T00:17:37;4.05;;;2.20;;
38222;SDS011;24024;51.186;6.458;2022-07-06T00:20:06;4.40;;;2.40;;
38222;SDS011;24024;51.186;6.458;2022-07-06T00:22:33;4.00;;;2.13;;
38222;SDS011;24024;51.186;6.458;2022-07-06T00:25:00;6.15;;;2.22;;
38222;SDS011;24024;51.186;6.458;2022-07-06T00:27:27;5.03;;;2.20;;
38222;SDS011;24024;51.186;6.458;2022-07-06T00:29:56;4.60;;;1.92;;
38222;SDS011;24024;51.186;6.458;2022-07-06T00:32:22;5.82;;;2.20;;
38222;SDS011;24024;51.186;6.458;2022-07-06T00:34:55;3.58;;;2.13;;
38222;SDS011;24024;51.186;6.458;2022-07-06T00:37:22;5.05;;;2.10;;
38222;SDS011;24024;51.186;6.458;2022-07-06T00:39:50;5.28;;;2.08;;
38222;SDS011;24024;51.186;6.458;2022-07-06T00:42:16;5.03;;;2.30;;
38222;SDS011;24024;51.186;6.458;2022-07-06T00:44:46;6.05;;;2.25;;
38222;SDS011;24024;51.186;6.458;2022-07-06T00:47:12;4.13;;;2.08;;
38222;SDS011;24024;51.186;6.458;2022-07-06T00:49:39;4.50;;;2.10;;
38222;SDS011;24024;51.186;6.458;2022-07-06T00:52:24;3.90;;;1.98;;
38222;SDS011;24024;51.186;6.458;2022-07-06T00:54:53;3.85;;;2.00;;
38222;SDS011;24024;51.186;6.458;2022-07-06T00:57:23;8.57;;;2.60;;
38222;SDS011;24024;51.186;6.458;2022-07-06T00:59:52;6.05;;;2.20;;
38222;SDS011;24024;51.186;6.458;2022-07-06T01:02:24;4.00;;;2.20;;
38222;SDS011;24024;51.186;6.458;2022-07-06T01:04:55;9.23;;;2.30;;
38222;SDS011;24024;51.186;6.458;2022-07-06T01:07:24;5.55;;;2.28;;
38222;SDS011;24024;51.186;6.458;2022-07-06T01:09:54;5.55;;;2.30;;
38222;SDS011;24024;51.186;6.458;2022-07-06T01:12:23;4.80;;;2.25;;
38222;SDS011;24024;51.186;6.458;2022-07-06T01:14:51;4.72;;;2.33;;
38222;SDS011;24024;51.186;6.458;2022-07-06T01:17:20;5.95;;;2.20;;
38222;SDS011;24024;51.186;6.458;2022-07-06T01:19:47;4.47;;;2.22;;
38222;SDS011;24024;51.186;6.458;2022-07-06T01:22:14;4.60;;;2.25;;
38222;SDS011;24024;51.186;6.458;2022-07-06T01:24:43;7.55;;;2.45;;
38222;SDS011;24024;51.186;6.458;2022-07-06T01:27:12;3.47;;;2.20;;
38222;SDS011;24024;51.186;6.458;2022-07-06T01:29:41;4.93;;;2.40;;
38222;SDS011;24024;51.186;6.458;2022-07-06T01:32:08;6.20;;;2.30;;
38222;SDS011;24024;51.186;6.458;2022-07-06T01:34:35;4.43;;;2.25;;
38222;SDS011;24024;51.186;6.458;2022-07-06T01:37:02;5.22;;;2.50;;
38222;SDS011;24024;51.186;6.458;2022-07-06T01:39:29;3.30;;;2.05;;
38222;SDS011;24024;51.186;6.458;2022-07-06T01:41:55;4.45;;;1.95;;
38222;SDS011;24024;51.186;6.458;2022-07-06T01:44:24;6.90;;;2.50;;
38222;SDS011;24024;51.186;6.458;2022-07-06T01:46:56;7.82;;;2.88;;
38222;SDS011;24024;51.186;6.458;2022-07-06T01:49:22;4.25;;;2.38;;
38222;SDS011;24024;51.186;6.458;2022-07-06T01:51:49;4.40;;;2.10;;
38222;SDS011;24024;51.186;6.458;2022-07-06T01:54:16;6.20;;;2.30;;
38222;SDS011;24024;51.186;6.458;2022-07-06T01:56:43;7.10;;;2.30;;
38222;SDS011;24024;51.186;6.458;2022-07-06T01:59:12;5.50;;;2.60;;
38222;SDS011;24024;51.186;6.458;2022-07-06T02:01:38;4.28;;;2.45;;
38222;SDS011;24024;51.186;6.458;2022-07-06T02:04:05;5.05;;;2.90;;
38222;SDS011;24024;51.186;6.458;2022-07-06T02:06:34;5.82;;;2.58;;
38222;SDS011;24024;51.186;6.458;2022-07-06T02:09:01;4.20;;;2.30;;
38222;SDS011;24024;51.186;6.458;2022-07-06T02:11:32;4.32;;;2.47;;
38222;SDS011;24024;51.186;6.458;2022-07-06T02:13:59;4.25;;;2.45;;
38222;SDS011;24024;51.186;6.458;2022-07-06T02:16:26;7.40;;;2.40;;
38222;SDS011;24024;51.186;6.458;2022-07-06T02:18:55;5.28;;;2.90;;
38222;SDS011;24024;51.186;6.458;2022-07-06T02:21:24;7.32;;;2.50;;
38222;SDS011;24024;51.186;6.458;2022-07-06T02:23:51;5.63;;;2.40;;
38222;SDS011;24024;51.186;6.458;2022-07-06T02:26:20;5.70;;;2.85;;
38222;SDS011;24024;51.186;6.458;2022-07-06T02:28:47;4.85;;;2.50;;
38222;SDS011;24024;51.186;6.458;2022-07-06T02:31:14;5.93;;;2.65;;
38222;SDS011;24024;51.186;6.458;2022-07-06T02:33:41;4.35;;;2.40;;
38222;SDS011;24024;51.186;6.458;2022-07-06T02:36:12;6.38;;;2.60;;
38222;SDS011;24024;51.186;6.458;2022-07-06T02:38:41;6.50;;;2.50;;
38222;SDS011;24024;51.186;6.458;2022-07-06T02:41:10;4.13;;;2.60;;
38222;SDS011;24024;51.186;6.458;2022-07-06T02:43:37;6.50;;;3.00;;
38222;SDS011;24024;51.186;6.458;2022-07-06T02:46:05;5.25;;;2.40;;
38222;SDS011;24024;51.186;6.458;2022-07-06T02:48:32;5.85;;;2.83;;
38222;SDS011;24024;51.186;6.458;2022-07-06T02:50:58;6.45;;;2.78;;
38222;SDS011;24024;51.186;6.458;2022-07-06T02:53:25;6.05;;;2.78;;
38222;SDS011;24024;51.186;6.458;2022-07-06T02:55:52;6.75;;;3.30;;
38222;SDS011;24024;51.186;6.458;2022-07-06T02:58:21;6.03;;;3.20;;
38222;SDS011;24024;51.186;6.458;2022-07-06T03:00:48;5.18;;;2.60;;
38222;SDS011;24024;51.186;6.458;2022-07-06T03:03:20;7.32;;;2.70;;
38222;SDS011;24024;51.186;6.458;2022-07-06T03:05:49;4.35;;;2.50;;
38222;SDS011;24024;51.186;6.458;2022-07-06T03:08:16;7.10;;;2.95;;
38222;SDS011;24024;51.186;6.458;2022-07-06T03:10:43;6.53;;;3.03;;
38222;SDS011;24024;51.186;6.458;2022-07-06T03:13:12;7.43;;;3.40;;
38222;SDS011;24024;51.186;6.458;2022-07-06T03:15:39;6.38;;;2.97;;
38222;SDS011;24024;51.186;6.458;2022-07-06T03:18:08;8.05;;;3.28;;
38222;SDS011;24024;51.186;6.458;2022-07-06T03:20:39;7.18;;;2.97;;
38222;SDS011;24024;51.186;6.458;2022-07-06T03:23:06;8.05;;;3.20;;
38222;SDS011;24024;51.186;6.458;2022-07-06T03:25:33;4.80;;;2.47;;
38222;SDS011;24024;51.186;6.458;2022-07-06T03:28:02;5.05;;;2.70;;
38222;SDS011;24024;51.186;6.458;2022-07-06T03:30:29;6.80;;;3.20;;
38222;SDS011;24024;51.186;6.458;2022-07-06T03:33:00;7.50;;;3.17;;
38222;SDS011;24024;51.186;6.458;2022-07-06T03:35:27;5.97;;;3.05;;
38222;SDS011;24024;51.186;6.458;2022-07-06T03:37:58;6.43;;;3.22;;
38222;SDS011;24024;51.186;6.458;2022-07-06T03:40:25;7.03;;;3.13;;
38222;SDS011;24024;51.186;6.458;2022-07-06T03:42:52;7.07;;;3.38;;
38222;SDS011;24024;51.186;6.458;2022-07-06T03:45:21;5.45;;;2.88;;
38222;SDS011;24024;51.186;6.458;2022-07-06T03:47:50;4.55;;;2.70;;
38222;SDS011;24024;51.186;6.458;2022-07-06T03:50:21;6.10;;;3.10;;
38222;SDS011;24024;51.186;6.458;2022-07-06T03:52:48;6.47;;;2.95;;
38222;SDS011;24024;51.186;6.458;2022-07-06T03:55:15;6.18;;;3.25;;
38222;SDS011;24024;51.186;6.458;2022-07-06T03:57:41;7.03;;;3.10;;
38222;SDS011;24024;51.186;6.458;2022-07-06T04:00:10;6.68;;;3.33;;
38222;SDS011;24024;51.186;6.458;2022-07-06T04:02:37;7.13;;;3.50;;
38222;SDS011;24024;51.186;6.458;2022-07-06T04:05:04;9.75;;;3.65;;
38222;SDS011;24024;51.186;6.458;2022-07-06T04:07:34;6.60;;;3.20;;
38222;SDS011;24024;51.186;6.458;2022-07-06T04:10:00;6.68;;;3.30;;
38222;SDS011;24024;51.186;6.458;2022-07-06T04:12:27;7.10;;;3.50;;
38222;SDS011;24024;51.186;6.458;2022-07-06T04:14:56;8.88;;;3.80;;
38222;SDS011;24024;51.186;6.458;2022-07-06T04:17:24;5.80;;;3.40;;
38222;SDS011;24024;51.186;6.458;2022-07-06T04:20:09;6.60;;;3.47;;
38222;SDS011;24024;51.186;6.458;2022-07-06T04:22:39;5.70;;;3.67;;
38222;SDS011;24024;51.186;6.458;2022-07-06T04:25:06;5.90;;;4.15;;
38222;SDS011;24024;51.186;6.458;2022-07-06T04:27:34;9.20;;;4.00;;
38222;SDS011;24024;51.186;6.458;2022-07-06T04:30:01;7.22;;;3.38;;
38222;SDS011;24024;51.186;6.458;2022-07-06T04:32:29;6.32;;;3.53;;
38222;SDS011;24024;51.186;6.458;2022-07-06T04:34:57;7.60;;;3.78;;
38222;SDS011;24024;51.186;6.458;2022-07-06T04:37:24;8.35;;;3.60;;
38222;SDS011;24024;51.186;6.458;2022-07-06T04:39:51;9.43;;;3.83;;
38222;SDS011;24024;51.186;6.458;2022-07-06T04:42:20;6.28;;;3.70;;
38222;SDS011;24024;51.186;6.458;2022-07-06T04:44:46;6.57;;;3.67;;
38222;SDS011;24024;51.186;6.458;2022-07-06T04:47:13;6.85;;;3.85;;
38222;SDS011;24024;51.186;6.458;2022-07-06T04:49:40;9.90;;;5.07;;
38222;SDS011;24024;51.186;6.458;2022-07-06T04:52:07;9.40;;;3.90;;
38222;SDS011;24024;51.186;6.458;2022-07-06T04:54:34;8.23;;;3.90;;
38222;SDS011;24024;51.186;6.458;2022-07-06T04:57:02;6.80;;;4.13;;
38222;SDS011;24024;51.186;6.458;2022-07-06T04:59:37;7.07;;;3.92;;
38222;SDS011;24024;51.186;6.458;2022-07-06T05:02:04;12.13;;;5.53;;
38222;SDS011;24024;51.186;6.458;2022-07-06T05:04:31;9.43;;;4.00;;
38222;SDS011;24024;51.186;6.458;2022-07-06T05:06:58;6.60;;;4.05;;
38222;SDS011;24024;51.186;6.458;2022-07-06T05:09:25;6.20;;;4.18;;
38222;SDS011;24024;51.186;6.458;2022-07-06T05:11:52;7.15;;;4.35;;
38222;SDS011;24024;51.186;6.458;2022-07-06T05:14:19;8.73;;;4.20;;
38222;SDS011;24024;51.186;6.458;2022-07-06T05:16:46;11.82;;;3.85;;
38222;SDS011;24024;51.186;6.458;2022-07-06T05:19:13;7.55;;;3.97;;
38222;SDS011;24024;51.186;6.458;2022-07-06T05:21:42;9.10;;;3.95;;
38222;SDS011;24024;51.186;6.458;2022-07-06T05:24:09;7.57;;;3.80;;
38222;SDS011;24024;51.186;6.458;2022-07-06T05:26:35;8.27;;;4.00;;
38222;SDS011;24024;51.186;6.458;2022-07-06T05:29:02;7.05;;;4.05;;
38222;SDS011;24024;51.186;6.458;2022-07-06T05:31:29;10.68;;;3.85;;
38222;SDS011;24024;51.186;6.458;2022-07-06T05:33:56;8.60;;;4.13;;
38222;SDS011;24024;51.186;6.458;2022-07-06T05:36:25;9.40;;;4.00;;
38222;SDS011;24024;51.186;6.458;2022-07-06T05:38:54;9.95;;;3.90;;
38222;SDS011;24024;51.186;6.458;2022-07-06T05:41:21;6.10;;;3.65;;
38222;SDS011;24024;51.186;6.458;2022-07-06T05:43:53;8.40;;;4.40;;
38222;SDS011;24024;51.186;6.458;2022-07-06T05:46:22;8.00;;;3.92;;
38222;SDS011;24024;51.186;6.458;2022-07-06T05:48:49;9.10;;;3.78;;
38222;SDS011;24024;51.186;6.458;2022-07-06T05:51:34;7.07;;;3.88;;
38222;SDS011;24024;51.186;6.458;2022-07-06T05:54:01;7.60;;;4.10;;
38222;SDS011;24024;51.186;6.458;2022-07-06T05:56:30;9.35;;;3.92;;
38222;SDS011;24024;51.186;6.458;2022-07-06T05:58:57;6.97;;;3.45;;
38222;SDS011;24024;51.186;6.458;2022-07-06T06:01:26;6.13;;;3.47;;
38222;SDS011;24024;51.186;6.458;2022-07-06T06:03:53;6.20;;;3.22;;
38222;SDS011;24024;51.186;6.458;2022-07-06T06:06:19;6.15;;;3.17;;
38222;SDS011;24024;51.186;6.458;2022-07-06T06:08:46;9.15;;;3.20;;
38222;SDS011;24024;51.186;6.458;2022-07-06T06:11:13;10.07;;;3.40;;
38222;SDS011;24024;51.186;6.458;2022-07-06T06:13:40;6.25;;;3.08;;
38222;SDS011;24024;51.186;6.458;2022-07-06T06:16:07;8.80;;;3.28;;
38222;SDS011;24024;51.186;6.458;2022-07-06T06:18:34;6.15;;;2.63;;
38222;SDS011;24024;51.186;6.458;2022-07-06T06:21:10;9.75;;;2.72;;
38222;SDS011;24024;51.186;6.458;2022-07-06T06:23:37;7.30;;;2.65;;
38222;SDS011;24024;51.186;6.458;2022-07-06T06:26:04;6.60;;;2.30;;
38222;SDS011;24024;51.186;6.458;2022-07-06T06:28:31;6.57;;;2.47;;
38222;SDS011;24024;51.186;6.458;2022-07-06T06:30:57;6.93;;;2.30;;
38222;SDS011;24024;51.186;6.458;2022-07-06T06:33:25;7.28;;;2.60;;
38222;SDS011;24024;51.186;6.458;2022-07-06T06:35:54;6.38;;;2.40;;
38222;SDS011;24024;51.186;6.458;2022-07-06T06:38:23;6.40;;;2.55;;
38222;SDS011;24024;51.186;6.458;2022-07-06T06:40:55;4.80;;;2.45;;
38222;SDS011;24024;51.186;6.458;2022-07-06T06:43:21;6.03;;;2.65;;
38222;SDS011;24024;51.186;6.458;2022-07-06T06:45:48;4.88;;;2.35;;
38222;SDS011;24024;51.186;6.458;2022-07-06T06:48:15;8.95;;;2.50;;
38222;SDS011;24024;51.186;6.458;2022-07-06T06:50:44;4.20;;;2.00;;
38222;SDS011;24024;51.186;6.458;2022-07-06T06:53:11;5.03;;;2.25;;
38222;SDS011;24024;51.186;6.458;2022-07-06T06:55:38;6.25;;;2.15;;
38222;SDS011;24024;51.186;6.458;2022-07-06T06:58:05;5.43;;;2.15;;
38222;SDS011;24024;51.186;6.458;2022-07-06T07:00:32;4.03;;;1.83;;
38222;SDS011;24024;51.186;6.458;2022-07-06T07:02:59;5.65;;;1.75;;
38222;SDS011;24024;51.186;6.458;2022-07-06T07:05:26;3.65;;;1.35;;
38222;SDS011;24024;51.186;6.458;2022-07-06T07:07:55;3.28;;;1.38;;
38222;SDS011;24024;51.186;6.458;2022-07-06T07:10:30;4.90;;;1.70;;
38222;SDS011;24024;51.186;6.458;2022-07-06T07:12:58;4.88;;;1.60;;
38222;SDS011;24024;51.186;6.458;2022-07-06T07:15:25;4.97;;;1.38;;
38222;SDS011;24024;51.186;6.458;2022-07-06T07:17:55;4.82;;;1.20;;
38222;SDS011;24024;51.186;6.458;2022-07-06T07:20:24;3.63;;;1.33;;
38222;SDS011;24024;51.186;6.458;2022-07-06T07:22:51;5.20;;;1.73;;
38222;SDS011;24024;51.186;6.458;2022-07-06T07:25:23;6.23;;;1.20;;
38222;SDS011;24024;51.186;6.458;2022-07-06T07:27:52;3.42;;;0.93;;
38222;SDS011;24024;51.186;6.458;2022-07-06T07:30:19;4.38;;;1.20;;
38222;SDS011;24024;51.186;6.458;2022-07-06T07:32:46;5.75;;;1.60;;
38222;SDS011;24024;51.186;6.458;2022-07-06T07:35:15;4.50;;;1.45;;
38222;SDS011;24024;51.186;6.458;2022-07-06T07:37:42;3.58;;;1.30;;
38222;SDS011;24024;51.186;6.458;2022-07-06T07:40:09;4.15;;;1.30;;
38222;SDS011;24024;51.186;6.458;2022-07-06T07:42:36;4.45;;;1.60;;
38222;SDS011;24024;51.186;6.458;2022-07-06T07:45:07;3.70;;;1.30;;
38222;SDS011;24024;51.186;6.458;2022-07-06T07:47:36;7.30;;;1.00;;
38222;SDS011;24024;51.186;6.458;2022-07-06T07:50:03;3.30;;;1.30;;
38222;SDS011;24024;51.186;6.458;2022-07-06T07:52:33;4.75;;;1.30;;
38222;SDS011;24024;51.186;6.458;2022-07-06T07:55:03;4.15;;;1.00;;
38222;SDS011;24024;51.186;6.458;2022-07-06T07:57:50;6.90;;;1.52;;
38222;SDS011;24024;51.186;6.458;2022-07-06T08:00:20;7.20;;;0.90;;
38222;SDS011;24024;51.186;6.458;2022-07-06T08:02:53;3.55;;;0.80;;
38222;SDS011;24024;51.186;6.458;2022-07-06T08:05:22;5.03;;;0.90;;
38222;SDS011;24024;51.186;6.458;2022-07-06T08:07:49;5.32;;;1.15;;
38222;SDS011;24024;51.186;6.458;2022-07-06T08:10:16;3.47;;;0.80;;
38222;SDS011;24024;51.186;6.458;2022-07-06T08:12:45;2.70;;;0.80;;
38222;SDS011;24024;51.186;6.458;2022-07-06T08:15:14;5.97;;;1.13;;
38222;SDS011;24024;51.186;6.458;2022-07-06T08:17:41;7.20;;;1.10;;
38222;SDS011;24024;51.186;6.458;2022-07-06T08:20:08;3.90;;;1.08;;
38222;SDS011;24024;51.186;6.458;2022-07-06T08:22:35;4.65;;;0.98;;
38222;SDS011;24024;51.186;6.458;2022-07-06T08:25:04;5.28;;;1.42;;
38222;SDS011;24024;51.186;6.458;2022-07-06T08:27:32;4.07;;;1.08;;
38222;SDS011;24024;51.186;6.458;2022-07-06T08:30:02;7.43;;;1.40;;
38222;SDS011;24024;51.186;6.458;2022-07-06T08:32:30;4.13;;;1.00;;
38222;SDS011;24024;51.186;6.458;2022-07-06T08:35:22;3.97;;;1.10;;
38222;SDS011;24024;51.186;6.458;2022-07-06T08:37:49;3.53;;;0.85;;
38222;SDS011;24024;51.186;6.458;2022-07-06T08:40:16;3.05;;;0.90;;
38222;SDS011;24024;51.186;6.458;2022-07-06T08:42:43;6.45;;;1.30;;
38222;SDS011;24024;51.186;6.458;2022-07-06T08:45:11;3.30;;;0.93;;
38222;SDS011;24024;51.186;6.458;2022-07-06T08:47:39;3.90;;;1.02;;
38222;SDS011;24024;51.186;6.458;2022-07-06T08:50:08;7.22;;;2.70;;
38222;SDS011;24024;51.186;6.458;2022-07-06T08:52:40;3.30;;;1.05;;
38222;SDS011;24024;51.186;6.458;2022-07-06T08:55:08;3.28;;;0.82;;
38222;SDS011;24024;51.186;6.458;2022-07-06T08:57:35;2.83;;;1.10;;
38222;SDS011;24024;51.186;6.458;2022-07-06T09:00:07;4.30;;;0.90;;
38222;SDS011;24024;51.186;6.458;2022-07-06T09:02:34;2.60;;;1.00;;
38222;SDS011;24024;51.186;6.458;2022-07-06T09:05:02;4.43;;;1.33;;
38222;SDS011;24024;51.186;6.458;2022-07-06T09:07:30;3.60;;;1.50;;
38222;SDS011;24024;51.186;6.458;2022-07-06T09:10:17;3.67;;;1.17;;
38222;SDS011;24024;51.186;6.458;2022-07-06T09:12:49;10.23;;;1.52;;
38222;SDS011;24024;51.186;6.458;2022-07-06T09:15:16;2.88;;;1.20;;
38222;SDS011;24024;51.186;6.458;2022-07-06T09:17:43;3.25;;;1.30;;
38222;SDS011;24024;51.186;6.458;2022-07-06T09:20:11;4.10;;;1.30;;
38222;SDS011;24024;51.186;6.458;2022-07-06T09:22:39;3.67;;;1.27;;
38222;SDS011;24024;51.186;6.458;2022-07-06T09:25:10;3.67;;;1.00;;
38222;SDS011;24024;51.186;6.458;2022-07-06T09:30:12;4.75;;;1.40;;
38222;SDS011;24024;51.186;6.458;2022-07-06T09:32:41;3.33;;;1.38;;
38222;SDS011;24024;51.186;6.458;2022-07-06T09:35:26;4.22;;;1.30;;
38222;SDS011;24024;51.186;6.458;2022-07-06T09:38:10;3.22;;;1.45;;
38222;SDS011;24024;51.186;6.458;2022-07-06T09:40:39;2.92;;;1.38;;
38222;SDS011;24024;51.186;6.458;2022-07-06T09:45:35;3.75;;;1.10;;
38222;SDS011;24024;51.186;6.458;2022-07-06T09:48:09;3.10;;;1.13;;
38222;SDS011;24024;51.186;6.458;2022-07-06T09:50:45;4.47;;;1.70;;
38222;SDS011;24024;51.186;6.458;2022-07-06T09:53:14;5.85;;;1.90;;
38222;SDS011;24024;51.186;6.458;2022-07-06T09:55:47;6.63;;;1.38;;
38222;SDS011;24024;51.186;6.458;2022-07-06T09:58:18;3.55;;;1.30;;
38222;SDS011;24024;51.186;6.458;2022-07-06T10:01:06;3.95;;;1.27;;
38222;SDS011;24024;51.186;6.458;2022-07-06T10:03:35;3.33;;;1.30;;
38222;SDS011;24024;51.186;6.458;2022-07-06T10:06:07;4.40;;;1.70;;
38222;SDS011;24024;51.186;6.458;2022-07-06T10:08:36;3.88;;;1.10;;
38222;SDS011;24024;51.186;6.458;2022-07-06T10:11:04;3.80;;;1.20;;
38222;SDS011;24024;51.186;6.458;2022-07-06T10:13:41;2.92;;;0.88;;
38222;SDS011;24024;51.186;6.458;2022-07-06T10:16:10;5.63;;;1.45;;
38222;SDS011;24024;51.186;6.458;2022-07-06T10:18:37;4.07;;;1.48;;
38222;SDS011;24024;51.186;6.458;2022-07-06T10:21:05;4.63;;;1.10;;
38222;SDS011;24024;51.186;6.458;2022-07-06T10:23:33;2.20;;;0.88;;
38222;SDS011;24024;51.186;6.458;2022-07-06T10:26:05;5.10;;;1.15;;
38222;SDS011;24024;51.186;6.458;2022-07-06T10:28:39;3.75;;;1.40;;
38222;SDS011;24024;51.186;6.458;2022-07-06T10:31:07;3.95;;;1.10;;
38222;SDS011;24024;51.186;6.458;2022-07-06T10:33:35;3.63;;;1.13;;
38222;SDS011;24024;51.186;6.458;2022-07-06T10:36:05;3.92;;;1.30;;
38222;SDS011;24024;51.186;6.458;2022-07-06T10:38:39;4.07;;;1.10;;
38222;SDS011;24024;51.186;6.458;2022-07-06T10:41:06;5.85;;;1.27;;
38222;SDS011;24024;51.186;6.458;2022-07-06T10:43:36;1.67;;;0.80;;
38222;SDS011;24024;51.186;6.458;2022-07-06T10:46:05;3.15;;;0.90;;
38222;SDS011;24024;51.186;6.458;2022-07-06T10:48:38;2.15;;;0.80;;
38222;SDS011;24024;51.186;6.458;2022-07-06T10:51:07;4.45;;;1.20;;
38222;SDS011;24024;51.186;6.458;2022-07-06T10:53:45;3.05;;;1.40;;
38222;SDS011;24024;51.186;6.458;2022-07-06T10:56:12;4.00;;;1.40;;
38222;SDS011;24024;51.186;6.458;2022-07-06T10:58:49;6.38;;;1.98;;
38222;SDS011;24024;51.186;6.458;2022-07-06T11:01:19;4.97;;;1.05;;
38222;SDS011;24024;51.186;6.458;2022-07-06T11:06:24;3.50;;;1.10;;
38222;SDS011;24024;51.186;6.458;2022-07-06T11:08:57;2.90;;;0.85;;
38222;SDS011;24024;51.186;6.458;2022-07-06T11:16:58;4.40;;;1.10;;
38222;SDS011;24024;51.186;6.458;2022-07-06T11:19:33;4.28;;;1.25;;
38222;SDS011;24024;51.186;6.458;2022-07-06T11:24:35;3.45;;;1.00;;
38222;SDS011;24024;51.186;6.458;2022-07-06T11:27:08;2.22;;;0.90;;
38222;SDS011;24024;51.186;6.458;2022-07-06T11:29:35;3.65;;;1.40;;
38222;SDS011;24024;51.186;6.458;2022-07-06T11:32:06;4.72;;;1.40;;
38222;SDS011;24024;51.186;6.458;2022-07-06T11:34:36;4.10;;;1.00;;
38222;SDS011;24024;51.186;6.458;2022-07-06T11:37:10;4.93;;;1.00;;
38222;SDS011;24024;51.186;6.458;2022-07-06T11:39:42;2.63;;;0.73;;
38222;SDS011;24024;51.186;6.458;2022-07-06T11:42:11;3.33;;;0.80;;
38222;SDS011;24024;51.186;6.458;2022-07-06T11:44:39;4.50;;;0.82;;
38222;SDS011;24024;51.186;6.458;2022-07-06T11:47:12;3.55;;;0.90;;
38222;SDS011;24024;51.186;6.458;2022-07-06T11:49:42;2.97;;;1.00;;
38222;SDS011;24024;51.186;6.458;2022-07-06T11:52:13;2.30;;;0.95;;
38222;SDS011;24024;51.186;6.458;2022-07-06T11:54:42;3.83;;;0.93;;
38222;SDS011;24024;51.186;6.458;2022-07-06T11:57:12;3.50;;;0.90;;
38222;SDS011;24024;51.186;6.458;2022-07-06T11:59:39;4.00;;;0.90;;
38222;SDS011;24024;51.186;6.458;2022-07-06T12:04:34;2.70;;;0.80;;
38222;SDS011;24024;51.186;6.458;2022-07-06T12:07:07;2.08;;;1.00;;
38222;SDS011;24024;51.186;6.458;2022-07-06T12:09:38;1.80;;;0.75;;
38222;SDS011;24024;51.186;6.458;2022-07-06T12:12:06;2.42;;;0.85;;
38222;SDS011;24024;51.186;6.458;2022-07-06T12:14:35;3.28;;;0.70;;
38222;SDS011;24024;51.186;6.458;2022-07-06T12:17:12;3.72;;;0.80;;
38222;SDS011;24024;51.186;6.458;2022-07-06T12:19:41;3.63;;;0.90;;
38222;SDS011;24024;51.186;6.458;2022-07-06T12:22:11;7.43;;;1.00;;
38222;SDS011;24024;51.186;6.458;2022-07-06T12:24:50;2.55;;;0.77;;
38222;SDS011;24024;51.186;6.458;2022-07-06T12:27:18;3.22;;;0.90;;
38222;SDS011;24024;51.186;6.458;2022-07-06T12:29:52;1.73;;;0.70;;
38222;SDS011;24024;51.186;6.458;2022-07-06T12:32:19;6.22;;;1.10;;
38222;SDS011;24024;51.186;6.458;2022-07-06T12:35:06;2.80;;;0.90;;
38222;SDS011;24024;51.186;6.458;2022-07-06T12:37:34;3.53;;;0.80;;
38222;SDS011;24024;51.186;6.458;2022-07-06T12:40:01;2.90;;;0.90;;
38222;SDS011;24024;51.186;6.458;2022-07-06T12:42:49;3.20;;;1.00;;
38222;SDS011;24024;51.186;6.458;2022-07-06T12:45:18;2.83;;;0.90;;
38222;SDS011;24024;51.186;6.458;2022-07-06T12:48:01;6.88;;;0.90;;
38222;SDS011;24024;51.186;6.458;2022-07-06T12:50:38;2.80;;;1.10;;
38222;SDS011;24024;51.186;6.458;2022-07-06T12:53:13;2.63;;;0.93;;
38222;SDS011;24024;51.186;6.458;2022-07-06T12:56:13;3.25;;;0.80;;
38222;SDS011;24024;51.186;6.458;2022-07-06T12:58:54;3.25;;;1.27;;
38222;SDS011;24024;51.186;6.458;2022-07-06T13:01:30;2.97;;;0.85;;
38222;SDS011;24024;51.186;6.458;2022-07-06T13:03:59;2.42;;;0.80;;
38222;SDS011;24024;51.186;6.458;2022-07-06T13:06:27;3.47;;;1.10;;
38222;SDS011;24024;51.186;6.458;2022-07-06T13:08:58;3.08;;;0.90;;
38222;SDS011;24024;51.186;6.458;2022-07-06T13:11:25;4.30;;;1.10;;
38222;SDS011;24024;51.186;6.458;2022-07-06T13:13:52;4.13;;;0.82;;
38222;SDS011;24024;51.186;6.458;2022-07-06T13:16:21;2.22;;;0.73;;
38222;SDS011;24024;51.186;6.458;2022-07-06T13:18:50;2.90;;;0.65;;
38222;SDS011;24024;51.186;6.458;2022-07-06T13:21:17;4.13;;;1.08;;
38222;SDS011;24024;51.186;6.458;2022-07-06T13:23:44;4.28;;;0.90;;
38222;SDS011;24024;51.186;6.458;2022-07-06T13:26:10;3.83;;;0.90;;
38222;SDS011;24024;51.186;6.458;2022-07-06T13:28:37;2.00;;;0.60;;
38222;SDS011;24024;51.186;6.458;2022-07-06T13:31:04;1.95;;;0.80;;
38222;SDS011;24024;51.186;6.458;2022-07-06T13:33:37;3.00;;;1.20;;
38222;SDS011;24024;51.186;6.458;2022-07-06T13:36:04;2.75;;;0.80;;
38222;SDS011;24024;51.186;6.458;2022-07-06T13:38:34;2.63;;;0.90;;
38222;SDS011;24024;51.186;6.458;2022-07-06T13:41:00;3.70;;;1.30;;
38222;SDS011;24024;51.186;6.458;2022-07-06T13:43:30;2.85;;;0.75;;
38222;SDS011;24024;51.186;6.458;2022-07-06T13:46:07;2.42;;;0.80;;
38222;SDS011;24024;51.186;6.458;2022-07-06T13:48:39;1.48;;;0.60;;
38222;SDS011;24024;51.186;6.458;2022-07-06T13:51:06;2.90;;;0.90;;
38222;SDS011;24024;51.186;6.458;2022-07-06T13:53:33;2.45;;;0.80;;
38222;SDS011;24024;51.186;6.458;2022-07-06T13:56:00;2.80;;;0.60;;
38222;SDS011;24024;51.186;6.458;2022-07-06T13:58:29;1.90;;;0.60;;
38222;SDS011;24024;51.186;6.458;2022-07-06T14:00:56;2.28;;;0.70;;
38222;SDS011;24024;51.186;6.458;2022-07-06T14:03:24;2.78;;;0.60;;
38222;SDS011;24024;51.186;6.458;2022-07-06T14:05:56;2.92;;;0.70;;
38222;SDS011;24024;51.186;6.458;2022-07-06T14:08:25;4.30;;;1.58;;
38222;SDS011;24024;51.186;6.458;2022-07-06T14:10:52;2.95;;;0.88;;
38222;SDS011;24024;51.186;6.458;2022-07-06T14:13:20;3.75;;;0.70;;
38222;SDS011;24024;51.186;6.458;2022-07-06T14:15:48;2.30;;;0.60;;
38222;SDS011;24024;51.186;6.458;2022-07-06T14:18:15;3.58;;;1.40;;
38222;SDS011;24024;51.186;6.458;2022-07-06T14:20:44;4.03;;;0.90;;
38222;SDS011;24024;51.186;6.458;2022-07-06T14:23:12;3.80;;;0.68;;
38222;SDS011;24024;51.186;6.458;2022-07-06T14:25:39;2.20;;;0.70;;
38222;SDS011;24024;51.186;6.458;2022-07-06T14:28:07;2.92;;;1.20;;
38222;SDS011;24024;51.186;6.458;2022-07-06T14:30:34;2.72;;;1.00;;
38222;SDS011;24024;51.186;6.458;2022-07-06T14:33:04;4.03;;;0.93;;
38222;SDS011;24024;51.186;6.458;2022-07-06T14:35:35;5.68;;;0.80;;
38222;SDS011;24024;51.186;6.458;2022-07-06T14:38:06;3.22;;;0.90;;
38222;SDS011;24024;51.186;6.458;2022-07-06T14:40:33;3.22;;;1.00;;
38222;SDS011;24024;51.186;6.458;2022-07-06T14:43:01;3.08;;;0.70;;
38222;SDS011;24024;51.186;6.458;2022-07-06T14:45:31;3.72;;;0.70;;
38222;SDS011;24024;51.186;6.458;2022-07-06T14:47:58;3.50;;;0.80;;
38222;SDS011;24024;51.186;6.458;2022-07-06T14:50:28;3.50;;;0.70;;
38222;SDS011;24024;51.186;6.458;2022-07-06T14:52:57;3.15;;;1.00;;
38222;SDS011;24024;51.186;6.458;2022-07-06T14:55:26;2.53;;;0.88;;
38222;SDS011;24024;51.186;6.458;2022-07-06T14:57:55;1.67;;;0.70;;
38222;SDS011;24024;51.186;6.458;2022-07-06T15:00:27;2.13;;;0.90;;
38222;SDS011;24024;51.186;6.458;2022-07-06T15:02:54;4.78;;;1.00;;
38222;SDS011;24024;51.186;6.458;2022-07-06T15:05:23;4.30;;;0.93;;
38222;SDS011;24024;51.186;6.458;2022-07-06T15:07:52;4.05;;;1.70;;
38222;SDS011;24024;51.186;6.458;2022-07-06T15:10:21;2.17;;;0.98;;
38222;SDS011;24024;51.186;6.458;2022-07-06T15:12:48;2.20;;;0.75;;
38222;SDS011;24024;51.186;6.458;2022-07-06T15:15:17;3.35;;;1.00;;
38222;SDS011;24024;51.186;6.458;2022-07-06T15:18:04;3.28;;;1.20;;